sensor_id;sensor_type;location;lat;lon;timestamp;P1;durP1;ratioP1;P2;durP2;ratioP2
76292;SDS011;67256;51.154;4.164;2023-04-09T00:02:11;32.38;;;25.02;;
76292;SDS011;67256;51.154;4.164;2023-04-09T00:04:37;31.73;;;25.95;;
76292;SDS011;67256;51.154;4.164;2023-04-09T00:07:02;33.95;;;25.83;;
76292;SDS011;67256;51.154;4.164;2023-04-09T00:09:28;31.15;;;24.20;;
76292;SDS011;67256;51.154;4.164;2023-04-09T00:11:54;31.48;;;24.17;;
76292;SDS011;67256;51.154;4.164;2023-04-09T00:14:21;35.45;;;24.75;;
76292;SDS011;67256;51.154;4.164;2023-04-09T00:16:46;29.27;;;24.27;;
76292;SDS011;67256;51.154;4.164;2023-04-09T00:19:12;30.05;;;24.33;;
76292;SDS011;67256;51.154;4.164;2023-04-09T00:21:38;26.35;;;22.67;;
76292;SDS011;67256;51.154;4.164;2023-04-09T00:24:03;31.35;;;24.75;;
76292;SDS011;67256;51.154;4.164;2023-04-09T00:26:29;29.38;;;22.75;;
76292;SDS011;67256;51.154;4.164;2023-04-09T00:28:55;34.15;;;25.60;;
76292;SDS011;67256;51.154;4.164;2023-04-09T00:31:21;29.20;;;24.80;;
76292;SDS011;67256;51.154;4.164;2023-04-09T00:33:47;30.38;;;23.63;;
76292;SDS011;67256;51.154;4.164;2023-04-09T00:36:13;28.60;;;23.35;;
76292;SDS011;67256;51.154;4.164;2023-04-09T00:38:39;26.27;;;21.85;;
76292;SDS011;67256;51.154;4.164;2023-04-09T00:41:05;30.00;;;23.77;;
76292;SDS011;67256;51.154;4.164;2023-04-09T00:43:31;34.88;;;23.60;;
76292;SDS011;67256;51.154;4.164;2023-04-09T00:45:57;31.17;;;24.65;;
76292;SDS011;67256;51.154;4.164;2023-04-09T00:48:23;32.30;;;23.02;;
76292;SDS011;67256;51.154;4.164;2023-04-09T00:50:49;30.73;;;23.15;;
76292;SDS011;67256;51.154;4.164;2023-04-09T00:53:15;26.20;;;20.77;;
76292;SDS011;67256;51.154;4.164;2023-04-09T00:55:42;29.48;;;22.33;;
76292;SDS011;67256;51.154;4.164;2023-04-09T00:58:08;33.92;;;22.42;;
76292;SDS011;67256;51.154;4.164;2023-04-09T01:00:34;28.15;;;21.83;;
76292;SDS011;67256;51.154;4.164;2023-04-09T01:02:59;26.23;;;21.75;;
76292;SDS011;67256;51.154;4.164;2023-04-09T01:05:35;26.80;;;21.15;;
76292;SDS011;67256;51.154;4.164;2023-04-09T01:08:13;26.13;;;21.48;;
76292;SDS011;67256;51.154;4.164;2023-04-09T01:13:29;26.83;;;21.08;;
76292;SDS011;67256;51.154;4.164;2023-04-09T01:16:04;25.77;;;20.70;;
76292;SDS011;67256;51.154;4.164;2023-04-09T01:21:05;27.42;;;22.38;;
76292;SDS011;67256;51.154;4.164;2023-04-09T01:29:16;27.30;;;21.08;;
76292;SDS011;67256;51.154;4.164;2023-04-09T01:31:43;27.35;;;21.05;;
76292;SDS011;67256;51.154;4.164;2023-04-09T01:34:09;24.27;;;18.75;;
76292;SDS011;67256;51.154;4.164;2023-04-09T01:36:37;28.88;;;20.27;;
76292;SDS011;67256;51.154;4.164;2023-04-09T01:39:05;28.42;;;20.75;;
76292;SDS011;67256;51.154;4.164;2023-04-09T01:41:31;27.13;;;21.70;;
76292;SDS011;67256;51.154;4.164;2023-04-09T01:43:59;29.02;;;19.80;;
76292;SDS011;67256;51.154;4.164;2023-04-09T01:46:26;26.27;;;21.00;;
76292;SDS011;67256;51.154;4.164;2023-04-09T01:48:53;25.35;;;19.08;;
76292;SDS011;67256;51.154;4.164;2023-04-09T01:51:20;25.02;;;19.13;;
76292;SDS011;67256;51.154;4.164;2023-04-09T01:53:47;25.17;;;19.23;;
76292;SDS011;67256;51.154;4.164;2023-04-09T01:56:13;26.85;;;20.10;;
76292;SDS011;67256;51.154;4.164;2023-04-09T01:58:39;33.15;;;23.40;;
76292;SDS011;67256;51.154;4.164;2023-04-09T02:01:08;27.95;;;21.38;;
76292;SDS011;67256;51.154;4.164;2023-04-09T02:03:50;30.08;;;22.05;;
76292;SDS011;67256;51.154;4.164;2023-04-09T02:08:57;28.92;;;20.80;;
76292;SDS011;67256;51.154;4.164;2023-04-09T02:11:25;31.30;;;21.15;;
76292;SDS011;67256;51.154;4.164;2023-04-09T02:13:53;31.55;;;22.55;;
76292;SDS011;67256;51.154;4.164;2023-04-09T02:16:20;28.80;;;21.75;;
76292;SDS011;67256;51.154;4.164;2023-04-09T02:18:49;30.13;;;22.38;;
76292;SDS011;67256;51.154;4.164;2023-04-09T02:21:21;26.65;;;20.13;;
76292;SDS011;67256;51.154;4.164;2023-04-09T02:23:47;29.27;;;22.73;;
76292;SDS011;67256;51.154;4.164;2023-04-09T02:26:13;32.53;;;25.25;;
76292;SDS011;67256;51.154;4.164;2023-04-09T02:28:39;27.35;;;19.70;;
76292;SDS011;67256;51.154;4.164;2023-04-09T02:31:05;26.85;;;20.50;;
76292;SDS011;67256;51.154;4.164;2023-04-09T02:33:31;28.70;;;21.92;;
76292;SDS011;67256;51.154;4.164;2023-04-09T02:35:57;35.80;;;23.58;;
76292;SDS011;67256;51.154;4.164;2023-04-09T02:38:24;27.20;;;20.48;;
76292;SDS011;67256;51.154;4.164;2023-04-09T02:40:49;28.88;;;21.40;;
76292;SDS011;67256;51.154;4.164;2023-04-09T02:43:15;25.00;;;19.55;;
76292;SDS011;67256;51.154;4.164;2023-04-09T02:45:41;26.33;;;19.85;;
76292;SDS011;67256;51.154;4.164;2023-04-09T02:48:06;28.27;;;20.65;;
76292;SDS011;67256;51.154;4.164;2023-04-09T02:50:32;26.25;;;20.95;;
76292;SDS011;67256;51.154;4.164;2023-04-09T02:52:58;26.50;;;20.08;;
76292;SDS011;67256;51.154;4.164;2023-04-09T02:55:23;27.40;;;20.30;;
76292;SDS011;67256;51.154;4.164;2023-04-09T02:57:49;28.80;;;21.13;;
76292;SDS011;67256;51.154;4.164;2023-04-09T03:00:15;24.52;;;18.88;;
76292;SDS011;67256;51.154;4.164;2023-04-09T03:02:41;29.02;;;22.38;;
76292;SDS011;67256;51.154;4.164;2023-04-09T03:05:06;29.80;;;21.58;;
76292;SDS011;67256;51.154;4.164;2023-04-09T03:07:33;32.58;;;24.60;;
76292;SDS011;67256;51.154;4.164;2023-04-09T03:09:58;31.27;;;22.23;;
76292;SDS011;67256;51.154;4.164;2023-04-09T03:12:24;34.38;;;23.42;;
76292;SDS011;67256;51.154;4.164;2023-04-09T03:14:50;37.97;;;22.83;;
76292;SDS011;67256;51.154;4.164;2023-04-09T03:17:15;37.90;;;26.58;;
76292;SDS011;67256;51.154;4.164;2023-04-09T03:19:41;35.70;;;26.85;;
76292;SDS011;67256;51.154;4.164;2023-04-09T03:22:07;32.00;;;23.50;;
76292;SDS011;67256;51.154;4.164;2023-04-09T03:24:32;29.73;;;21.05;;
76292;SDS011;67256;51.154;4.164;2023-04-09T03:26:58;33.05;;;24.33;;
76292;SDS011;67256;51.154;4.164;2023-04-09T03:29:25;34.30;;;24.40;;
76292;SDS011;67256;51.154;4.164;2023-04-09T03:31:50;33.75;;;24.52;;
76292;SDS011;67256;51.154;4.164;2023-04-09T03:34:16;37.15;;;26.40;;
76292;SDS011;67256;51.154;4.164;2023-04-09T03:36:42;35.97;;;25.33;;
76292;SDS011;67256;51.154;4.164;2023-04-09T03:39:07;33.88;;;25.25;;
76292;SDS011;67256;51.154;4.164;2023-04-09T03:41:33;33.08;;;25.92;;
76292;SDS011;67256;51.154;4.164;2023-04-09T03:43:59;38.58;;;27.80;;
76292;SDS011;67256;51.154;4.164;2023-04-09T03:46:25;39.47;;;29.17;;
76292;SDS011;67256;51.154;4.164;2023-04-09T03:48:51;43.10;;;29.35;;
76292;SDS011;67256;51.154;4.164;2023-04-09T03:51:17;41.90;;;29.85;;
76292;SDS011;67256;51.154;4.164;2023-04-09T03:53:43;38.63;;;27.15;;
76292;SDS011;67256;51.154;4.164;2023-04-09T03:56:09;35.97;;;26.95;;
76292;SDS011;67256;51.154;4.164;2023-04-09T03:58:35;44.08;;;29.50;;
76292;SDS011;67256;51.154;4.164;2023-04-09T04:01:01;37.95;;;28.00;;
76292;SDS011;67256;51.154;4.164;2023-04-09T04:03:27;44.10;;;30.15;;
76292;SDS011;67256;51.154;4.164;2023-04-09T04:05:58;43.05;;;29.50;;
76292;SDS011;67256;51.154;4.164;2023-04-09T04:08:27;39.28;;;29.15;;
76292;SDS011;67256;51.154;4.164;2023-04-09T04:10:53;45.05;;;31.08;;
76292;SDS011;67256;51.154;4.164;2023-04-09T04:13:19;43.42;;;31.25;;
76292;SDS011;67256;51.154;4.164;2023-04-09T04:15:45;45.65;;;31.90;;
76292;SDS011;67256;51.154;4.164;2023-04-09T04:18:10;42.45;;;30.08;;
76292;SDS011;67256;51.154;4.164;2023-04-09T04:20:36;46.05;;;33.35;;
76292;SDS011;67256;51.154;4.164;2023-04-09T04:23:03;48.10;;;33.78;;
76292;SDS011;67256;51.154;4.164;2023-04-09T04:25:29;48.83;;;33.60;;
76292;SDS011;67256;51.154;4.164;2023-04-09T04:27:56;50.30;;;34.83;;
76292;SDS011;67256;51.154;4.164;2023-04-09T04:30:21;45.88;;;33.25;;
76292;SDS011;67256;51.154;4.164;2023-04-09T04:32:48;46.03;;;33.28;;
76292;SDS011;67256;51.154;4.164;2023-04-09T04:35:14;49.70;;;35.28;;
76292;SDS011;67256;51.154;4.164;2023-04-09T04:37:39;47.47;;;32.63;;
76292;SDS011;67256;51.154;4.164;2023-04-09T04:40:06;48.53;;;33.38;;
76292;SDS011;67256;51.154;4.164;2023-04-09T04:42:33;48.92;;;33.10;;
76292;SDS011;67256;51.154;4.164;2023-04-09T04:44:59;52.08;;;34.30;;
76292;SDS011;67256;51.154;4.164;2023-04-09T04:47:25;48.53;;;34.28;;
76292;SDS011;67256;51.154;4.164;2023-04-09T04:49:50;47.95;;;33.67;;
76292;SDS011;67256;51.154;4.164;2023-04-09T04:52:16;47.88;;;34.08;;
76292;SDS011;67256;51.154;4.164;2023-04-09T04:54:42;45.28;;;33.40;;
76292;SDS011;67256;51.154;4.164;2023-04-09T04:57:08;49.38;;;33.63;;
76292;SDS011;67256;51.154;4.164;2023-04-09T04:59:37;51.40;;;34.80;;
76292;SDS011;67256;51.154;4.164;2023-04-09T05:04:30;48.25;;;33.33;;
76292;SDS011;67256;51.154;4.164;2023-04-09T05:06:55;51.90;;;35.28;;
76292;SDS011;67256;51.154;4.164;2023-04-09T05:09:21;49.75;;;34.28;;
76292;SDS011;67256;51.154;4.164;2023-04-09T05:11:47;49.17;;;34.45;;
76292;SDS011;67256;51.154;4.164;2023-04-09T05:14:12;50.47;;;35.53;;
76292;SDS011;67256;51.154;4.164;2023-04-09T05:16:38;52.50;;;36.05;;
76292;SDS011;67256;51.154;4.164;2023-04-09T05:19:04;50.67;;;35.90;;
76292;SDS011;67256;51.154;4.164;2023-04-09T05:21:30;53.10;;;37.10;;
76292;SDS011;67256;51.154;4.164;2023-04-09T05:23:56;54.33;;;37.78;;
76292;SDS011;67256;51.154;4.164;2023-04-09T05:26:22;52.95;;;37.38;;
76292;SDS011;67256;51.154;4.164;2023-04-09T05:28:48;54.88;;;38.78;;
76292;SDS011;67256;51.154;4.164;2023-04-09T05:31:14;53.45;;;37.17;;
76292;SDS011;67256;51.154;4.164;2023-04-09T05:33:40;51.67;;;35.75;;
76292;SDS011;67256;51.154;4.164;2023-04-09T05:36:06;53.33;;;36.05;;
76292;SDS011;67256;51.154;4.164;2023-04-09T05:38:32;53.88;;;37.05;;
76292;SDS011;67256;51.154;4.164;2023-04-09T05:40:59;50.80;;;35.33;;
76292;SDS011;67256;51.154;4.164;2023-04-09T05:43:24;48.95;;;36.53;;
76292;SDS011;67256;51.154;4.164;2023-04-09T05:45:50;50.80;;;35.60;;
76292;SDS011;67256;51.154;4.164;2023-04-09T05:48:17;52.03;;;35.65;;
76292;SDS011;67256;51.154;4.164;2023-04-09T05:50:50;53.72;;;36.92;;
76292;SDS011;67256;51.154;4.164;2023-04-09T05:53:16;52.50;;;36.63;;
76292;SDS011;67256;51.154;4.164;2023-04-09T05:55:43;50.63;;;35.00;;
76292;SDS011;67256;51.154;4.164;2023-04-09T05:58:09;46.90;;;32.63;;
76292;SDS011;67256;51.154;4.164;2023-04-09T06:00:35;48.20;;;34.38;;
76292;SDS011;67256;51.154;4.164;2023-04-09T06:03:01;50.70;;;35.92;;
76292;SDS011;67256;51.154;4.164;2023-04-09T06:05:27;55.20;;;37.10;;
76292;SDS011;67256;51.154;4.164;2023-04-09T06:07:53;50.38;;;35.35;;
76292;SDS011;67256;51.154;4.164;2023-04-09T06:10:19;52.45;;;35.55;;
76292;SDS011;67256;51.154;4.164;2023-04-09T06:12:45;50.78;;;34.75;;
76292;SDS011;67256;51.154;4.164;2023-04-09T06:15:11;53.42;;;35.55;;
76292;SDS011;67256;51.154;4.164;2023-04-09T06:17:37;53.65;;;36.22;;
76292;SDS011;67256;51.154;4.164;2023-04-09T06:20:02;54.17;;;36.17;;
76292;SDS011;67256;51.154;4.164;2023-04-09T06:22:28;60.60;;;39.10;;
76292;SDS011;67256;51.154;4.164;2023-04-09T06:24:54;57.15;;;37.47;;
76292;SDS011;67256;51.154;4.164;2023-04-09T06:27:21;54.83;;;36.75;;
76292;SDS011;67256;51.154;4.164;2023-04-09T06:29:46;57.47;;;38.08;;
76292;SDS011;67256;51.154;4.164;2023-04-09T06:32:12;59.88;;;39.95;;
76292;SDS011;67256;51.154;4.164;2023-04-09T06:34:38;51.17;;;37.92;;
76292;SDS011;67256;51.154;4.164;2023-04-09T06:37:03;57.88;;;39.83;;
76292;SDS011;67256;51.154;4.164;2023-04-09T06:39:29;65.15;;;42.40;;
76292;SDS011;67256;51.154;4.164;2023-04-09T06:41:55;58.13;;;38.65;;
76292;SDS011;67256;51.154;4.164;2023-04-09T06:44:21;62.42;;;42.03;;
76292;SDS011;67256;51.154;4.164;2023-04-09T06:46:48;59.08;;;39.55;;
76292;SDS011;67256;51.154;4.164;2023-04-09T06:49:14;62.20;;;42.13;;
76292;SDS011;67256;51.154;4.164;2023-04-09T06:51:39;64.22;;;43.88;;
76292;SDS011;67256;51.154;4.164;2023-04-09T06:54:05;67.55;;;45.08;;
76292;SDS011;67256;51.154;4.164;2023-04-09T06:56:31;59.97;;;42.17;;
76292;SDS011;67256;51.154;4.164;2023-04-09T06:58:58;66.65;;;43.80;;
76292;SDS011;67256;51.154;4.164;2023-04-09T07:01:23;62.60;;;42.63;;
76292;SDS011;67256;51.154;4.164;2023-04-09T07:03:50;66.88;;;43.08;;
76292;SDS011;67256;51.154;4.164;2023-04-09T07:06:16;64.97;;;43.72;;
76292;SDS011;67256;51.154;4.164;2023-04-09T07:08:42;58.50;;;41.38;;
76292;SDS011;67256;51.154;4.164;2023-04-09T07:11:08;61.85;;;43.40;;
76292;SDS011;67256;51.154;4.164;2023-04-09T07:13:34;64.07;;;42.42;;
76292;SDS011;67256;51.154;4.164;2023-04-09T07:16:00;61.03;;;42.35;;
76292;SDS011;67256;51.154;4.164;2023-04-09T07:18:25;63.95;;;43.25;;
76292;SDS011;67256;51.154;4.164;2023-04-09T07:20:51;61.30;;;43.25;;
76292;SDS011;67256;51.154;4.164;2023-04-09T07:23:17;64.55;;;43.80;;
76292;SDS011;67256;51.154;4.164;2023-04-09T07:25:43;62.72;;;43.45;;
76292;SDS011;67256;51.154;4.164;2023-04-09T07:28:09;63.40;;;43.67;;
76292;SDS011;67256;51.154;4.164;2023-04-09T07:30:35;67.40;;;43.22;;
76292;SDS011;67256;51.154;4.164;2023-04-09T07:33:01;63.22;;;42.72;;
76292;SDS011;67256;51.154;4.164;2023-04-09T07:35:27;64.65;;;44.33;;
76292;SDS011;67256;51.154;4.164;2023-04-09T07:37:53;59.63;;;43.45;;
76292;SDS011;67256;51.154;4.164;2023-04-09T07:40:19;63.85;;;43.92;;
76292;SDS011;67256;51.154;4.164;2023-04-09T07:42:45;60.13;;;43.60;;
76292;SDS011;67256;51.154;4.164;2023-04-09T07:45:11;66.28;;;43.92;;
76292;SDS011;67256;51.154;4.164;2023-04-09T07:47:37;65.35;;;44.95;;
76292;SDS011;67256;51.154;4.164;2023-04-09T07:50:05;65.90;;;45.30;;
76292;SDS011;67256;51.154;4.164;2023-04-09T07:52:31;62.63;;;43.17;;
76292;SDS011;67256;51.154;4.164;2023-04-09T07:54:57;66.15;;;44.67;;
76292;SDS011;67256;51.154;4.164;2023-04-09T07:57:23;63.25;;;41.22;;
76292;SDS011;67256;51.154;4.164;2023-04-09T07:59:49;68.68;;;45.97;;
76292;SDS011;67256;51.154;4.164;2023-04-09T08:02:15;64.82;;;44.15;;
76292;SDS011;67256;51.154;4.164;2023-04-09T08:04:41;67.68;;;45.60;;
76292;SDS011;67256;51.154;4.164;2023-04-09T08:07:07;61.53;;;44.53;;
76292;SDS011;67256;51.154;4.164;2023-04-09T08:09:33;63.25;;;42.65;;
76292;SDS011;67256;51.154;4.164;2023-04-09T08:11:58;59.03;;;42.33;;
76292;SDS011;67256;51.154;4.164;2023-04-09T08:14:25;62.38;;;42.20;;
76292;SDS011;67256;51.154;4.164;2023-04-09T08:16:50;66.47;;;44.70;;
76292;SDS011;67256;51.154;4.164;2023-04-09T08:19:17;62.75;;;43.42;;
76292;SDS011;67256;51.154;4.164;2023-04-09T08:21:44;65.80;;;43.83;;
76292;SDS011;67256;51.154;4.164;2023-04-09T08:24:12;59.47;;;40.88;;
76292;SDS011;67256;51.154;4.164;2023-04-09T08:26:39;66.85;;;44.60;;
76292;SDS011;67256;51.154;4.164;2023-04-09T08:29:06;63.15;;;41.85;;
76292;SDS011;67256;51.154;4.164;2023-04-09T08:31:32;62.78;;;43.33;;
76292;SDS011;67256;51.154;4.164;2023-04-09T08:33:58;62.47;;;41.33;;
76292;SDS011;67256;51.154;4.164;2023-04-09T08:36:24;60.55;;;41.60;;
76292;SDS011;67256;51.154;4.164;2023-04-09T08:38:53;63.05;;;40.90;;
76292;SDS011;67256;51.154;4.164;2023-04-09T08:41:24;60.53;;;40.92;;
76292;SDS011;67256;51.154;4.164;2023-04-09T08:43:52;61.08;;;43.83;;
76292;SDS011;67256;51.154;4.164;2023-04-09T08:46:19;57.13;;;41.40;;
76292;SDS011;67256;51.154;4.164;2023-04-09T08:48:46;60.78;;;40.53;;
76292;SDS011;67256;51.154;4.164;2023-04-09T08:51:16;59.05;;;40.03;;
76292;SDS011;67256;51.154;4.164;2023-04-09T08:53:47;58.97;;;41.15;;
76292;SDS011;67256;51.154;4.164;2023-04-09T08:56:23;58.95;;;40.28;;
76292;SDS011;67256;51.154;4.164;2023-04-09T08:58:50;57.53;;;40.42;;
76292;SDS011;67256;51.154;4.164;2023-04-09T09:01:29;54.95;;;40.75;;
76292;SDS011;67256;51.154;4.164;2023-04-09T09:06:24;61.70;;;42.08;;
76292;SDS011;67256;51.154;4.164;2023-04-09T09:09:01;63.72;;;42.28;;
76292;SDS011;67256;51.154;4.164;2023-04-09T09:11:43;60.67;;;41.67;;
76292;SDS011;67256;51.154;4.164;2023-04-09T09:14:14;65.65;;;42.45;;
76292;SDS011;67256;51.154;4.164;2023-04-09T09:16:43;60.42;;;40.42;;
76292;SDS011;67256;51.154;4.164;2023-04-09T09:19:28;57.75;;;39.95;;
76292;SDS011;67256;51.154;4.164;2023-04-09T09:24:24;62.53;;;42.65;;
76292;SDS011;67256;51.154;4.164;2023-04-09T09:26:50;64.60;;;42.10;;
76292;SDS011;67256;51.154;4.164;2023-04-09T09:29:16;59.38;;;41.22;;
76292;SDS011;67256;51.154;4.164;2023-04-09T09:31:48;62.40;;;40.42;;
76292;SDS011;67256;51.154;4.164;2023-04-09T09:34:20;63.30;;;42.90;;
76292;SDS011;67256;51.154;4.164;2023-04-09T09:36:47;59.03;;;40.55;;
76292;SDS011;67256;51.154;4.164;2023-04-09T09:39:15;63.25;;;40.70;;
76292;SDS011;67256;51.154;4.164;2023-04-09T09:41:42;60.97;;;41.13;;
76292;SDS011;67256;51.154;4.164;2023-04-09T09:44:10;59.95;;;38.33;;
76292;SDS011;67256;51.154;4.164;2023-04-09T09:46:37;55.55;;;39.38;;
76292;SDS011;67256;51.154;4.164;2023-04-09T09:49:05;57.28;;;37.85;;
76292;SDS011;67256;51.154;4.164;2023-04-09T09:51:32;59.20;;;37.47;;
76292;SDS011;67256;51.154;4.164;2023-04-09T09:54:01;52.97;;;36.92;;
76292;SDS011;67256;51.154;4.164;2023-04-09T09:56:31;49.65;;;34.38;;
76292;SDS011;67256;51.154;4.164;2023-04-09T10:01:34;43.00;;;28.65;;
76292;SDS011;67256;51.154;4.164;2023-04-09T10:04:01;39.47;;;27.25;;
76292;SDS011;67256;51.154;4.164;2023-04-09T10:06:31;40.20;;;28.13;;
76292;SDS011;67256;51.154;4.164;2023-04-09T10:09:00;40.67;;;28.98;;
76292;SDS011;67256;51.154;4.164;2023-04-09T10:11:30;40.65;;;28.23;;
76292;SDS011;67256;51.154;4.164;2023-04-09T10:13:58;38.28;;;27.00;;
76292;SDS011;67256;51.154;4.164;2023-04-09T10:16:24;38.97;;;26.85;;
76292;SDS011;67256;51.154;4.164;2023-04-09T10:18:56;39.88;;;27.50;;
76292;SDS011;67256;51.154;4.164;2023-04-09T10:21:25;38.05;;;25.33;;
76292;SDS011;67256;51.154;4.164;2023-04-09T10:23:52;32.60;;;22.90;;
76292;SDS011;67256;51.154;4.164;2023-04-09T10:26:19;39.17;;;25.35;;
76292;SDS011;67256;51.154;4.164;2023-04-09T10:28:46;35.70;;;25.85;;
76292;SDS011;67256;51.154;4.164;2023-04-09T10:31:28;29.58;;;21.83;;
76292;SDS011;67256;51.154;4.164;2023-04-09T10:34:08;30.35;;;22.95;;
76292;SDS011;67256;51.154;4.164;2023-04-09T10:36:34;34.72;;;24.38;;
76292;SDS011;67256;51.154;4.164;2023-04-09T10:39:00;33.58;;;24.98;;
76292;SDS011;67256;51.154;4.164;2023-04-09T10:41:37;34.00;;;23.90;;
76292;SDS011;67256;51.154;4.164;2023-04-09T10:44:05;26.15;;;19.55;;
76292;SDS011;67256;51.154;4.164;2023-04-09T10:46:34;25.90;;;17.27;;
76292;SDS011;67256;51.154;4.164;2023-04-09T10:51:37;30.95;;;20.75;;
76292;SDS011;67256;51.154;4.164;2023-04-09T10:54:04;27.10;;;19.67;;
76292;SDS011;67256;51.154;4.164;2023-04-09T10:56:31;28.63;;;19.02;;
76292;SDS011;67256;51.154;4.164;2023-04-09T10:58:58;27.33;;;19.42;;
76292;SDS011;67256;51.154;4.164;2023-04-09T11:01:23;30.80;;;21.58;;
76292;SDS011;67256;51.154;4.164;2023-04-09T11:04:07;26.98;;;19.25;;
76292;SDS011;67256;51.154;4.164;2023-04-09T11:06:37;31.08;;;22.02;;
76292;SDS011;67256;51.154;4.164;2023-04-09T11:09:05;27.90;;;19.80;;
76292;SDS011;67256;51.154;4.164;2023-04-09T11:11:31;28.65;;;20.45;;
76292;SDS011;67256;51.154;4.164;2023-04-09T11:13:58;28.30;;;21.13;;
76292;SDS011;67256;51.154;4.164;2023-04-09T11:16:30;27.77;;;19.38;;
76292;SDS011;67256;51.154;4.164;2023-04-09T11:18:56;28.60;;;20.27;;
76292;SDS011;67256;51.154;4.164;2023-04-09T11:21:25;28.33;;;20.35;;
76292;SDS011;67256;51.154;4.164;2023-04-09T11:23:52;31.95;;;21.30;;
76292;SDS011;67256;51.154;4.164;2023-04-09T11:26:31;30.60;;;22.33;;
76292;SDS011;67256;51.154;4.164;2023-04-09T11:29:09;30.92;;;20.88;;
76292;SDS011;67256;51.154;4.164;2023-04-09T11:31:34;30.08;;;21.20;;
76292;SDS011;67256;51.154;4.164;2023-04-09T11:34:01;31.80;;;21.92;;
76292;SDS011;67256;51.154;4.164;2023-04-09T11:36:27;30.27;;;21.77;;
76292;SDS011;67256;51.154;4.164;2023-04-09T11:38:53;29.38;;;23.27;;
76292;SDS011;67256;51.154;4.164;2023-04-09T11:41:38;29.02;;;22.50;;
76292;SDS011;67256;51.154;4.164;2023-04-09T11:44:04;29.13;;;20.80;;
76292;SDS011;67256;51.154;4.164;2023-04-09T11:46:33;26.25;;;16.73;;
76292;SDS011;67256;51.154;4.164;2023-04-09T11:49:00;25.17;;;17.27;;
76292;SDS011;67256;51.154;4.164;2023-04-09T11:51:26;18.70;;;13.75;;
76292;SDS011;67256;51.154;4.164;2023-04-09T11:53:55;22.23;;;15.27;;
76292;SDS011;67256;51.154;4.164;2023-04-09T11:56:35;24.10;;;18.15;;
76292;SDS011;67256;51.154;4.164;2023-04-09T11:59:01;23.15;;;18.23;;
76292;SDS011;67256;51.154;4.164;2023-04-09T12:01:31;23.58;;;17.77;;
76292;SDS011;67256;51.154;4.164;2023-04-09T12:03:57;27.13;;;18.02;;
76292;SDS011;67256;51.154;4.164;2023-04-09T12:06:24;23.85;;;18.48;;
76292;SDS011;67256;51.154;4.164;2023-04-09T12:08:55;23.08;;;17.80;;
76292;SDS011;67256;51.154;4.164;2023-04-09T12:11:26;24.35;;;18.65;;
76292;SDS011;67256;51.154;4.164;2023-04-09T12:14:05;30.10;;;19.27;;
76292;SDS011;67256;51.154;4.164;2023-04-09T12:16:34;28.30;;;19.15;;
76292;SDS011;67256;51.154;4.164;2023-04-09T12:19:07;22.67;;;17.38;;
76292;SDS011;67256;51.154;4.164;2023-04-09T12:24:12;29.13;;;21.52;;
76292;SDS011;67256;51.154;4.164;2023-04-09T12:26:38;25.13;;;18.73;;
76292;SDS011;67256;51.154;4.164;2023-04-09T12:29:04;25.73;;;19.85;;
76292;SDS011;67256;51.154;4.164;2023-04-09T12:31:30;28.08;;;20.50;;
76292;SDS011;67256;51.154;4.164;2023-04-09T12:33:56;27.52;;;20.67;;
76292;SDS011;67256;51.154;4.164;2023-04-09T12:36:22;27.02;;;19.88;;
76292;SDS011;67256;51.154;4.164;2023-04-09T12:38:48;28.50;;;20.92;;
76292;SDS011;67256;51.154;4.164;2023-04-09T12:41:14;27.90;;;19.83;;
76292;SDS011;67256;51.154;4.164;2023-04-09T12:43:40;25.63;;;18.75;;
76292;SDS011;67256;51.154;4.164;2023-04-09T12:46:07;24.83;;;18.30;;
76292;SDS011;67256;51.154;4.164;2023-04-09T12:48:34;28.48;;;20.20;;
76292;SDS011;67256;51.154;4.164;2023-04-09T12:51:00;31.58;;;23.15;;
76292;SDS011;67256;51.154;4.164;2023-04-09T12:53:25;30.48;;;23.10;;
76292;SDS011;67256;51.154;4.164;2023-04-09T12:55:51;27.15;;;21.13;;
76292;SDS011;67256;51.154;4.164;2023-04-09T12:58:17;30.58;;;19.83;;
76292;SDS011;67256;51.154;4.164;2023-04-09T13:00:43;27.17;;;19.52;;
76292;SDS011;67256;51.154;4.164;2023-04-09T13:03:09;27.80;;;19.70;;
76292;SDS011;67256;51.154;4.164;2023-04-09T13:05:35;22.90;;;17.98;;
76292;SDS011;67256;51.154;4.164;2023-04-09T13:08:02;27.60;;;21.13;;
76292;SDS011;67256;51.154;4.164;2023-04-09T13:10:28;25.92;;;18.95;;
76292;SDS011;67256;51.154;4.164;2023-04-09T13:12:57;30.08;;;20.85;;
76292;SDS011;67256;51.154;4.164;2023-04-09T13:15:23;23.85;;;18.13;;
76292;SDS011;67256;51.154;4.164;2023-04-09T13:17:48;23.77;;;17.75;;
76292;SDS011;67256;51.154;4.164;2023-04-09T13:20:14;24.08;;;16.77;;
76292;SDS011;67256;51.154;4.164;2023-04-09T13:22:40;24.10;;;17.23;;
76292;SDS011;67256;51.154;4.164;2023-04-09T13:25:06;22.67;;;16.00;;
76292;SDS011;67256;51.154;4.164;2023-04-09T13:27:31;23.45;;;16.10;;
76292;SDS011;67256;51.154;4.164;2023-04-09T13:29:57;21.92;;;16.77;;
76292;SDS011;67256;51.154;4.164;2023-04-09T13:32:23;22.77;;;16.05;;
76292;SDS011;67256;51.154;4.164;2023-04-09T13:34:49;22.73;;;16.27;;
76292;SDS011;67256;51.154;4.164;2023-04-09T13:37:15;26.77;;;16.52;;
76292;SDS011;67256;51.154;4.164;2023-04-09T13:39:41;22.77;;;16.65;;
76292;SDS011;67256;51.154;4.164;2023-04-09T13:42:08;23.70;;;16.83;;
76292;SDS011;67256;51.154;4.164;2023-04-09T13:44:34;20.50;;;14.27;;
76292;SDS011;67256;51.154;4.164;2023-04-09T13:47:00;18.92;;;13.35;;
76292;SDS011;67256;51.154;4.164;2023-04-09T13:49:26;18.15;;;14.65;;
76292;SDS011;67256;51.154;4.164;2023-04-09T13:51:52;20.02;;;12.90;;
76292;SDS011;67256;51.154;4.164;2023-04-09T13:54:17;18.60;;;14.85;;
76292;SDS011;67256;51.154;4.164;2023-04-09T13:56:43;18.05;;;13.65;;
76292;SDS011;67256;51.154;4.164;2023-04-09T13:59:10;20.77;;;15.00;;
76292;SDS011;67256;51.154;4.164;2023-04-09T14:01:36;19.00;;;13.88;;
76292;SDS011;67256;51.154;4.164;2023-04-09T14:04:02;19.98;;;14.07;;
76292;SDS011;67256;51.154;4.164;2023-04-09T14:06:28;20.90;;;15.40;;
76292;SDS011;67256;51.154;4.164;2023-04-09T14:08:53;20.48;;;14.75;;
76292;SDS011;67256;51.154;4.164;2023-04-09T14:11:19;16.00;;;12.73;;
76292;SDS011;67256;51.154;4.164;2023-04-09T14:13:45;17.35;;;14.10;;
76292;SDS011;67256;51.154;4.164;2023-04-09T14:16:11;17.80;;;14.38;;
76292;SDS011;67256;51.154;4.164;2023-04-09T14:18:36;19.08;;;14.45;;
76292;SDS011;67256;51.154;4.164;2023-04-09T14:21:04;19.80;;;12.35;;
76292;SDS011;67256;51.154;4.164;2023-04-09T14:23:31;16.75;;;11.55;;
76292;SDS011;67256;51.154;4.164;2023-04-09T14:25:56;15.77;;;11.30;;
76292;SDS011;67256;51.154;4.164;2023-04-09T14:28:23;14.18;;;10.35;;
76292;SDS011;67256;51.154;4.164;2023-04-09T14:30:48;12.23;;;9.30;;
76292;SDS011;67256;51.154;4.164;2023-04-09T14:33:14;12.73;;;9.55;;
76292;SDS011;67256;51.154;4.164;2023-04-09T14:35:40;15.68;;;10.65;;
76292;SDS011;67256;51.154;4.164;2023-04-09T14:38:05;14.85;;;9.75;;
76292;SDS011;67256;51.154;4.164;2023-04-09T14:40:31;13.68;;;10.48;;
76292;SDS011;67256;51.154;4.164;2023-04-09T14:42:58;14.32;;;10.45;;
76292;SDS011;67256;51.154;4.164;2023-04-09T14:45:23;12.40;;;9.98;;
76292;SDS011;67256;51.154;4.164;2023-04-09T14:47:51;15.13;;;9.27;;
76292;SDS011;67256;51.154;4.164;2023-04-09T14:50:18;13.00;;;8.45;;